首页
METAR-TAF:

METAR-TAF

机场 :

Dodge City, 堪薩斯州, 美国

纬度: 37-46-22N, 经度: 099-58-11W, 海拔: 790米

当前天气观测

该预报发布于1小时和22分钟前的02:52 UTC
风速15节,风向南转南东,有时为25节阵风
温度 29°C
湿度 52%
气压 1007 hPa
能見度: 16.1公里
天空无云

METAR: KDDC 170252Z AUTO 16015G25KT 10SM CLR 29/18 A2973 RMK AO2 SLP031 T02890183 53012

时间: 23:14 (04:14 UTC)

预报

该预报发布于4小时和54分钟前的23:20 UTC
预报有效从17日的 00点(UTC)到 17日的 24点(UTC)
风速20节,风向,有时为30节阵风
能見度: 10公里
散云层高于20000英尺

TAF: KDDC 162320Z 1700/1724 19020G30KT P6SM SCT200

超过4000个机场的气象观测和天气预报(METAR&TAF报告)。

可查询的气象台以黄色和红色小点在地图上表示。

将鼠标移到小点上方,可查看气象台名称。

然后点击查看天气观测和预报。

如需切换地图:点击带黑十字的绿色按钮放大地图;点击带横线的绿色按钮缩小地图;或者点击绿色箭头查看邻近地区的地图。


METAR-TAF: